createdAt,value
2023-05-21T00:01:24.587Z,3.6
2023-05-21T00:05:23.268Z,3.5
2023-05-21T00:07:22.853Z,3.8
2023-05-21T00:09:22.637Z,4.1
2023-05-21T00:11:23.089Z,3.6
2023-05-21T00:13:22.313Z,3.9
2023-05-21T00:15:22.183Z,4.4
2023-05-21T00:17:22.341Z,4.0
2023-05-21T00:19:21.803Z,4.1
2023-05-21T00:21:22.085Z,3.7
2023-05-21T00:23:21.427Z,4.2
2023-05-21T00:27:21.063Z,4.1
2023-05-21T00:29:21.329Z,4.2
2023-05-21T00:33:20.860Z,3.9
2023-05-21T00:35:20.695Z,4.0
2023-05-21T00:37:20.734Z,4.1
2023-05-21T00:39:20.142Z,4.4
2023-05-21T00:41:21.987Z,4.1
2023-05-21T00:43:19.485Z,4.2
2023-05-21T00:45:19.495Z,4.4
2023-05-21T00:47:20.561Z,4.1
2023-05-21T00:49:21.291Z,4.2
2023-05-21T00:51:20.665Z,3.8
2023-05-21T00:53:18.821Z,4.4
2023-05-21T00:55:18.638Z,4.0
2023-05-21T00:57:19.670Z,4.2
2023-05-21T00:59:18.425Z,4.1
2023-05-21T01:01:18.412Z,3.9
2023-05-21T01:03:18.015Z,4.6
2023-05-21T01:05:17.888Z,4.5
2023-05-21T01:07:17.668Z,4.6
2023-05-21T01:09:17.356Z,4.1
2023-05-21T01:13:17.582Z,4.5
2023-05-21T01:17:16.713Z,4.1
2023-05-21T01:19:18.281Z,4.4
2023-05-21T01:21:19.264Z,4.3
2023-05-21T01:23:17.111Z,3.9
2023-05-21T01:25:15.803Z,4.4
2023-05-21T01:29:15.540Z,4.2
2023-05-21T01:31:25.467Z,4.6
2023-05-21T01:33:22.279Z,4.1
2023-05-21T01:35:20.892Z,4.4
2023-05-21T01:37:22.349Z,4.1
2023-05-21T01:39:19.114Z,4.3
2023-05-21T01:41:17.821Z,4.2
2023-05-21T01:43:14.698Z,4.3
2023-05-21T01:45:15.673Z,4.2
2023-05-21T01:47:16.204Z,4.1
2023-05-21T01:51:13.879Z,4.3
2023-05-21T01:53:14.772Z,3.9
2023-05-21T01:55:13.616Z,4.1
2023-05-21T01:57:12.836Z,4.4
2023-05-21T01:59:12.625Z,4.1
2023-05-21T02:01:12.385Z,4.2
2023-05-21T02:03:12.694Z,4.1
2023-05-21T02:05:12.096Z,4.0
2023-05-21T02:07:13.441Z,4.2
2023-05-21T02:09:11.596Z,3.9
2023-05-21T02:11:11.471Z,4.2
2023-05-21T02:13:11.188Z,4.4
2023-05-21T02:15:13.169Z,3.9
2023-05-21T02:17:10.784Z,4.0
2023-05-21T02:19:10.986Z,4.2
2023-05-21T02:21:10.388Z,4.1
2023-05-21T02:23:10.180Z,4.2
2023-05-21T02:25:11.104Z,3.8
2023-05-21T02:27:12.378Z,4.3
2023-05-21T02:29:09.641Z,4.2
2023-05-21T02:31:09.448Z,4.1
2023-05-21T02:35:10.374Z,4.0
2023-05-21T02:37:12.582Z,4.2
2023-05-21T02:39:08.611Z,4.1
2023-05-21T02:41:08.898Z,4.2
2023-05-21T02:43:08.046Z,4.3
2023-05-21T02:45:09.972Z,4.6
2023-05-21T02:47:09.263Z,4.0
2023-05-21T02:49:07.363Z,4.1
2023-05-21T02:51:07.210Z,4.3
2023-05-21T02:53:06.883Z,4.6
2023-05-21T02:55:07.828Z,4.7
2023-05-21T02:57:06.688Z,4.6
2023-05-21T02:59:06.221Z,4.4
2023-05-21T03:01:06.217Z,4.8
2023-05-21T03:03:05.923Z,4.3
2023-05-21T03:05:06.763Z,4.7
2023-05-21T03:07:05.498Z,4.6
2023-05-21T03:09:05.210Z,4.4
2023-05-21T03:11:04.963Z,4.9
2023-05-21T03:13:07.480Z,4.6
2023-05-21T03:15:05.414Z,4.9
2023-05-21T03:17:04.903Z,4.8
2023-05-21T03:19:04.029Z,5.1
2023-05-21T03:21:04.605Z,4.8
2023-05-21T03:23:03.626Z,5.2
2023-05-21T03:25:03.575Z,5.3
2023-05-21T03:29:02.830Z,5.2
2023-05-21T03:33:02.622Z,5.0
2023-05-21T03:35:03.323Z,5.2
2023-05-21T03:37:01.913Z,5.8
2023-05-21T03:39:02.501Z,5.1
2023-05-21T03:41:01.402Z,5.8
2023-05-21T03:43:01.304Z,5.4
2023-05-21T03:45:03.105Z,6.0
2023-05-21T03:47:00.668Z,5.6
2023-05-21T03:49:01.253Z,5.7
2023-05-21T03:51:00.450Z,5.3
2023-05-21T03:53:00.967Z,5.4
2023-05-21T03:54:59.829Z,5.8
2023-05-21T03:57:00.051Z,6.2
2023-05-21T03:59:00.254Z,5.5
2023-05-21T04:01:00.800Z,5.2
2023-05-21T04:02:58.912Z,5.8
2023-05-21T04:04:58.571Z,5.5
2023-05-21T04:06:58.627Z,6.1
2023-05-21T04:08:58.016Z,5.8
2023-05-21T04:10:57.838Z,5.5
2023-05-21T04:12:57.462Z,5.8
2023-05-21T04:14:57.230Z,5.9
2023-05-21T04:16:56.974Z,5.6
2023-05-21T04:18:56.971Z,6.1
2023-05-21T04:20:57.913Z,5.5
2023-05-21T04:22:56.214Z,5.9
2023-05-21T04:24:56.024Z,5.5
2023-05-21T04:26:56.385Z,5.4
2023-05-21T04:28:56.128Z,6.0
2023-05-21T04:30:55.529Z,5.7
2023-05-21T04:32:55.084Z,6.1
2023-05-21T04:34:54.745Z,5.8
2023-05-21T04:36:55.755Z,6.1
2023-05-21T04:38:54.618Z,5.8
2023-05-21T04:40:54.732Z,6.4
2023-05-21T04:42:54.060Z,5.6
2023-05-21T04:44:54.579Z,6.3
2023-05-21T04:46:53.830Z,6.1
2023-05-21T04:48:53.976Z,6.3
2023-05-21T04:50:53.267Z,6.1
2023-05-21T04:52:53.725Z,5.9
2023-05-21T04:54:53.142Z,6.5
2023-05-21T04:56:53.090Z,6.0
2023-05-21T04:58:53.114Z,6.3
2023-05-21T05:00:52.788Z,6.0
2023-05-21T05:02:51.423Z,5.9
2023-05-21T05:04:51.073Z,6.2
2023-05-21T05:06:51.470Z,5.9
2023-05-21T05:08:51.188Z,6.0
2023-05-21T05:10:50.494Z,6.2
2023-05-21T05:12:50.448Z,6.0
2023-05-21T05:16:49.768Z,6.1
2023-05-21T05:18:49.980Z,5.9
2023-05-21T05:20:49.466Z,6.1
2023-05-21T05:22:49.086Z,5.9
2023-05-21T05:24:48.886Z,6.6
2023-05-21T05:26:48.605Z,6.3
2023-05-21T05:28:48.541Z,5.8
2023-05-21T05:32:48.152Z,5.7
2023-05-21T05:34:47.843Z,6.3
2023-05-21T05:38:47.372Z,6.5
2023-05-21T05:42:48.392Z,6.2
2023-05-21T05:46:46.641Z,6.4
2023-05-21T05:48:46.568Z,6.6
2023-05-21T05:50:47.001Z,6.2
2023-05-21T05:52:45.751Z,6.0
2023-05-21T05:54:46.085Z,6.6
2023-05-21T05:56:45.307Z,6.3
2023-05-21T05:58:45.134Z,6.9
2023-05-21T06:00:45.087Z,6.5
2023-05-21T06:04:44.472Z,6.4
2023-05-21T06:06:45.070Z,6.7
2023-05-21T06:08:44.087Z,6.4
2023-05-21T06:10:43.943Z,6.3
2023-05-21T06:12:43.578Z,7.1
2023-05-21T06:14:45.316Z,6.7
2023-05-21T06:16:43.075Z,7.1
2023-05-21T06:18:43.112Z,6.9
2023-05-21T06:20:42.707Z,6.5
2023-05-21T06:22:42.552Z,7.1
2023-05-21T06:26:42.060Z,7.3
2023-05-21T06:28:41.832Z,6.6
2023-05-21T06:30:41.641Z,6.8
2023-05-21T06:38:41.696Z,6.6
2023-05-21T06:40:40.533Z,7.0
2023-05-21T06:44:41.388Z,6.9
2023-05-21T06:48:39.950Z,7.1
2023-05-21T06:50:39.683Z,7.4
2023-05-21T06:52:39.500Z,7.5
2023-05-21T06:54:39.291Z,7.0
2023-05-21T06:56:39.521Z,6.8
2023-05-21T06:58:38.754Z,7.1
2023-05-21T07:00:38.953Z,7.7
2023-05-21T07:02:38.689Z,7.1
2023-05-21T07:04:38.226Z,7.7
2023-05-21T07:06:38.170Z,7.1
2023-05-21T07:08:37.814Z,7.2
2023-05-21T07:10:37.687Z,7.6
2023-05-21T07:14:37.508Z,7.5
2023-05-21T07:22:37.934Z,6.9
2023-05-21T07:24:36.466Z,7.2
2023-05-21T07:26:36.197Z,7.4
2023-05-21T07:30:35.874Z,8.0
2023-05-21T07:32:35.756Z,7.7
2023-05-21T07:34:35.477Z,7.2
2023-05-21T07:36:35.969Z,8.0
2023-05-21T07:38:35.127Z,7.9
2023-05-21T07:40:35.331Z,8.4
2023-05-21T07:42:34.725Z,7.8
2023-05-21T07:44:34.535Z,8.1
2023-05-21T07:46:34.827Z,8.5
2023-05-21T07:48:35.392Z,8.1
2023-05-21T07:50:34.031Z,7.9
2023-05-21T07:52:33.945Z,7.8
2023-05-21T07:54:33.723Z,8.1
2023-05-21T07:56:33.508Z,7.6
2023-05-21T07:58:34.119Z,8.1
2023-05-21T08:00:42.899Z,8.2
2023-05-21T08:02:32.980Z,7.9
2023-05-21T08:04:32.887Z,9.1
2023-05-21T08:06:33.046Z,8.7
2023-05-21T08:08:32.545Z,8.5
2023-05-21T08:10:32.529Z,8.9
2023-05-21T08:12:32.448Z,8.5
2023-05-21T08:14:32.067Z,8.9
2023-05-21T08:16:33.751Z,9.1
2023-05-21T08:18:31.752Z,8.8
2023-05-21T08:20:32.500Z,9.0
2023-05-21T08:22:31.391Z,8.3
2023-05-21T08:24:31.537Z,8.9
2023-05-21T08:26:31.131Z,9.2
2023-05-21T08:28:31.050Z,9.3
2023-05-21T08:30:30.920Z,9.1
2023-05-21T08:34:30.758Z,9.2
2023-05-21T08:36:30.687Z,9.6
2023-05-21T08:38:30.620Z,9.5
2023-05-21T08:40:30.140Z,8.9
2023-05-21T08:42:38.330Z,8.7
2023-05-21T08:44:32.634Z,9.2
2023-05-21T08:46:33.010Z,8.9
2023-05-21T08:50:30.741Z,9.2
2023-05-21T08:52:29.862Z,10.4
2023-05-21T08:54:29.390Z,9.4
2023-05-21T08:56:30.557Z,9.0
2023-05-21T08:58:32.694Z,9.3
2023-05-21T09:00:28.810Z,9.5
2023-05-21T09:02:33.075Z,9.3
2023-05-21T09:04:30.405Z,9.8
2023-05-21T09:06:28.822Z,9.6
2023-05-21T09:08:31.124Z,9.5
2023-05-21T09:12:28.708Z,10.1
2023-05-21T09:14:28.540Z,9.9
2023-05-21T09:16:27.985Z,10.6
2023-05-21T09:18:27.900Z,10.0
2023-05-21T09:20:28.358Z,9.9
2023-05-21T09:22:27.569Z,10.6
2023-05-21T09:26:27.451Z,10.1
2023-05-21T09:28:27.139Z,10.5
2023-05-21T09:32:27.004Z,10.1
2023-05-21T09:34:27.044Z,10.8
2023-05-21T09:36:28.296Z,10.7
2023-05-21T09:38:26.744Z,11.0
2023-05-21T09:40:26.521Z,10.6
2023-05-21T09:42:28.879Z,10.9
2023-05-21T09:46:26.228Z,11.0
2023-05-21T09:50:26.850Z,11.3
2023-05-21T09:52:27.241Z,10.4
2023-05-21T09:54:31.293Z,10.3
2023-05-21T09:56:29.648Z,11.0
2023-05-21T09:58:25.724Z,10.8
2023-05-21T10:00:27.711Z,11.0
2023-05-21T10:04:26.145Z,11.3
2023-05-21T10:06:27.091Z,11.5
2023-05-21T10:08:33.236Z,10.9
2023-05-21T10:10:27.536Z,11.1
2023-05-21T10:12:29.322Z,11.3
2023-05-21T10:14:29.576Z,11.2
2023-05-21T10:16:25.476Z,10.8
2023-05-21T10:18:24.731Z,10.0
2023-05-21T10:20:24.854Z,11.5
2023-05-21T10:22:25.280Z,11.9
2023-05-21T10:24:25.760Z,11.8
2023-05-21T10:26:25.330Z,12.2
2023-05-21T10:28:24.820Z,12.4
2023-05-21T10:30:24.629Z,11.2
2023-05-21T10:32:26.244Z,11.7
2023-05-21T10:38:24.784Z,11.6
2023-05-21T10:42:43.548Z,12.4
2023-05-21T10:44:37.262Z,12.6
2023-05-21T10:46:43.440Z,13.1
2023-05-21T10:48:36.307Z,12.0
2023-05-21T10:52:43.231Z,12.5
2023-05-21T10:54:40.872Z,12.7
2023-05-21T11:00:24.724Z,12.8
2023-05-21T11:02:25.544Z,13.5
2023-05-21T11:04:26.476Z,14.0
2023-05-21T11:06:25.097Z,13.0
2023-05-21T11:10:31.541Z,13.4
2023-05-21T11:12:22.872Z,13.6
2023-05-21T11:14:33.870Z,14.0
2023-05-21T11:16:24.749Z,12.9
2023-05-21T11:18:22.794Z,14.2
2023-05-21T11:20:33.523Z,14.1
2023-05-21T11:22:24.260Z,14.3
2023-05-21T11:24:23.091Z,14.5
2023-05-21T11:26:23.661Z,13.1
2023-05-21T11:28:32.445Z,14.4
2023-05-21T11:30:22.350Z,13.7
2023-05-21T11:32:23.229Z,14.9
2023-05-21T11:34:27.513Z,14.6
2023-05-21T11:38:21.991Z,13.4
2023-05-21T11:40:24.913Z,13.9
2023-05-21T11:42:31.775Z,14.5
2023-05-21T11:44:39.392Z,13.1
2023-05-21T11:46:21.916Z,12.8
2023-05-21T11:48:25.999Z,14.3
2023-05-21T11:50:22.227Z,14.1
2023-05-21T11:52:22.348Z,13.6
2023-05-21T11:54:22.795Z,14.3
2023-05-21T11:56:23.393Z,14.1
2023-05-21T11:58:21.529Z,13.8
2023-05-21T12:00:22.156Z,13.5
2023-05-21T12:02:21.642Z,13.2
2023-05-21T12:04:21.482Z,13.0
2023-05-21T12:06:25.516Z,13.4
2023-05-21T12:08:24.291Z,13.7
2023-05-21T12:10:22.270Z,13.5
2023-05-21T12:12:23.559Z,13.3
2023-05-21T12:14:21.691Z,12.4
2023-05-21T12:16:22.167Z,12.7
2023-05-21T12:18:21.670Z,12.5
2023-05-21T12:20:21.627Z,13.6
2023-05-21T12:22:23.453Z,13.0
2023-05-21T12:24:21.862Z,13.5
2023-05-21T12:26:21.395Z,13.0
2023-05-21T12:28:21.785Z,13.3
2023-05-21T12:30:21.207Z,13.7
2023-05-21T12:32:21.271Z,13.6
2023-05-21T12:34:38.683Z,13.5
2023-05-21T12:36:21.708Z,14.0
2023-05-21T12:38:20.988Z,13.6
2023-05-21T12:40:21.267Z,14.5
2023-05-21T12:44:20.951Z,13.8
2023-05-21T12:46:22.354Z,13.3
2023-05-21T12:48:20.830Z,14.3
2023-05-21T12:50:21.266Z,14.0
2023-05-21T12:52:21.382Z,12.9
2023-05-21T12:54:27.895Z,14.1
2023-05-21T12:56:21.474Z,14.3
2023-05-21T12:58:21.409Z,13.5
2023-05-21T13:00:23.043Z,14.1
2023-05-21T13:02:23.899Z,13.6
2023-05-21T13:04:20.814Z,14.1
2023-05-21T13:06:20.879Z,13.3
2023-05-21T13:08:20.789Z,14.1
2023-05-21T13:10:20.833Z,13.5
2023-05-21T13:12:22.384Z,13.4
2023-05-21T13:14:20.714Z,14.3
2023-05-21T13:16:22.590Z,13.9
2023-05-21T13:20:22.693Z,14.1
2023-05-21T13:22:20.616Z,14.4
2023-05-21T13:24:20.686Z,14.3
2023-05-21T13:26:20.890Z,12.8
2023-05-21T13:28:22.602Z,14.1
2023-05-21T13:32:21.550Z,12.4
2023-05-21T13:34:20.678Z,13.2
2023-05-21T13:36:20.720Z,14.0
2023-05-21T13:38:20.767Z,13.8
2023-05-21T13:40:21.155Z,13.9
2023-05-21T13:42:20.731Z,13.8
2023-05-21T13:44:20.991Z,13.3
2023-05-21T13:46:21.285Z,13.1
2023-05-21T13:48:20.829Z,13.4
2023-05-21T13:50:20.822Z,13.5
2023-05-21T13:52:20.859Z,12.9
2023-05-21T13:54:20.820Z,13.0
2023-05-21T13:56:21.176Z,13.1
2023-05-21T13:58:20.935Z,12.8
2023-05-21T14:00:20.897Z,13.1
2023-05-21T14:02:21.237Z,12.7
2023-05-21T14:04:20.905Z,12.4
2023-05-21T14:06:21.079Z,13.6
2023-05-21T14:08:22.544Z,12.9
2023-05-21T14:14:35.424Z,13.7
2023-05-21T14:16:35.370Z,13.2
2023-05-21T14:18:35.479Z,13.6
2023-05-21T14:20:36.565Z,13.9
2023-05-21T14:22:35.490Z,14.4
2023-05-21T14:24:35.717Z,13.1
2023-05-21T14:26:38.940Z,14.0
2023-05-21T14:28:35.803Z,14.3
2023-05-21T14:30:35.747Z,13.5
2023-05-21T14:32:35.816Z,13.1
2023-05-21T14:34:37.491Z,14.5
2023-05-21T14:36:35.973Z,13.3
2023-05-21T14:38:35.828Z,13.5
2023-05-21T14:40:35.864Z,13.7
2023-05-21T14:42:36.048Z,13.2
2023-05-21T14:46:37.511Z,12.4
2023-05-21T14:48:36.012Z,13.6
2023-05-21T14:52:36.177Z,12.8
2023-05-21T14:54:36.387Z,14.0
2023-05-21T14:56:36.253Z,14.4
2023-05-21T14:58:36.272Z,13.5
2023-05-21T15:00:37.482Z,12.8
2023-05-21T15:02:36.991Z,12.4
2023-05-21T15:04:36.539Z,12.1
2023-05-21T15:06:36.483Z,12.6
2023-05-21T15:08:36.493Z,13.6
2023-05-21T15:10:36.921Z,13.7
2023-05-21T15:12:37.283Z,13.0
2023-05-21T15:14:36.869Z,12.4
2023-05-21T15:16:36.924Z,12.7
2023-05-21T15:18:36.895Z,12.9
2023-05-21T15:20:36.849Z,12.2
2023-05-21T15:22:37.158Z,11.9
2023-05-21T15:24:36.957Z,11.8
2023-05-21T15:26:37.016Z,13.9
2023-05-21T15:28:37.022Z,14.0
2023-05-21T15:30:37.040Z,13.4
2023-05-21T15:32:37.178Z,11.9
2023-05-21T15:34:37.335Z,12.8
2023-05-21T15:36:37.391Z,13.5
2023-05-21T15:38:37.329Z,12.9
2023-05-21T15:40:40.122Z,13.4
2023-05-21T15:42:37.413Z,13.1
2023-05-21T15:44:37.722Z,12.1
2023-05-21T15:46:37.641Z,12.5
2023-05-21T15:48:37.731Z,12.6
2023-05-21T15:50:37.766Z,12.4
2023-05-21T15:52:37.902Z,13.2
2023-05-21T15:54:37.870Z,12.4
2023-05-21T15:56:38.217Z,11.6
2023-05-21T15:58:38.179Z,14.2
2023-05-21T16:00:42.640Z,12.3
2023-05-21T16:02:39.770Z,12.8
2023-05-21T16:04:38.254Z,12.5
2023-05-21T16:06:38.541Z,12.8
2023-05-21T16:08:38.325Z,13.7
2023-05-21T16:12:38.475Z,13.5
2023-05-21T16:14:38.495Z,14.4
2023-05-21T16:16:38.573Z,16.7
2023-05-21T16:18:38.786Z,15.3
2023-05-21T16:20:38.658Z,18.4
2023-05-21T16:22:39.240Z,14.6
2023-05-21T16:24:38.981Z,13.4
2023-05-21T16:26:38.997Z,12.2
2023-05-21T16:28:39.075Z,12.8
2023-05-21T16:30:39.026Z,13.4
2023-05-21T16:32:39.258Z,11.9
2023-05-21T16:34:39.301Z,12.5
2023-05-21T16:36:39.304Z,12.0
2023-05-21T16:38:39.285Z,12.8
2023-05-21T16:40:39.371Z,12.2
2023-05-21T16:42:39.505Z,13.1
2023-05-21T16:44:39.802Z,11.9
2023-05-21T16:46:39.763Z,12.4
2023-05-21T16:48:41.501Z,11.5
2023-05-21T16:50:40.070Z,11.8
2023-05-21T16:52:39.760Z,11.3
2023-05-21T16:54:41.005Z,11.8
2023-05-21T16:56:39.892Z,11.7
2023-05-21T16:58:39.815Z,12.2
2023-05-21T17:00:40.006Z,12.1
2023-05-21T17:02:40.089Z,12.4
2023-05-21T17:04:40.234Z,12.3
2023-05-21T17:06:40.207Z,11.9
2023-05-21T17:08:40.473Z,11.1
2023-05-21T17:10:40.162Z,11.5
2023-05-21T17:12:40.291Z,11.3
2023-05-21T17:14:40.231Z,11.7
2023-05-21T17:16:41.782Z,11.4
2023-05-21T17:18:40.370Z,11.5
2023-05-21T17:20:42.522Z,11.7
2023-05-21T17:22:40.461Z,10.7
2023-05-21T17:24:40.680Z,10.8
2023-05-21T17:26:40.566Z,10.6
2023-05-21T17:28:40.805Z,10.4
2023-05-21T17:30:40.760Z,10.3
2023-05-21T17:32:40.916Z,11.1
2023-05-21T17:34:40.801Z,10.5
2023-05-21T17:36:40.868Z,11.3
2023-05-21T17:38:40.842Z,10.3
2023-05-21T17:42:41.086Z,10.0
2023-05-21T17:44:41.030Z,10.4
2023-05-21T17:46:41.409Z,10.2
2023-05-21T17:50:41.211Z,9.3
2023-05-21T17:52:41.244Z,10.0
2023-05-21T17:54:41.332Z,9.4
2023-05-21T17:56:41.367Z,9.5
2023-05-21T17:58:41.306Z,9.6
2023-05-21T18:00:41.658Z,9.9
2023-05-21T18:02:41.573Z,9.4
2023-05-21T18:04:41.577Z,9.1
2023-05-21T18:06:42.065Z,8.8
2023-05-21T18:08:41.549Z,9.0
2023-05-21T18:12:42.747Z,8.8
2023-05-21T18:14:41.772Z,9.0
2023-05-21T18:16:41.863Z,9.1
2023-05-21T18:18:42.289Z,8.9
2023-05-21T18:20:43.619Z,9.0
2023-05-21T18:22:43.386Z,8.9
2023-05-21T18:24:41.970Z,8.8
2023-05-21T18:26:42.428Z,8.9
2023-05-21T18:30:42.058Z,9.5
2023-05-21T18:32:43.091Z,8.9
2023-05-21T18:34:42.834Z,8.7
2023-05-21T18:36:42.319Z,9.2
2023-05-21T18:38:42.589Z,8.4
2023-05-21T18:40:42.283Z,8.8
2023-05-21T18:42:42.324Z,9.2
2023-05-21T18:44:44.840Z,8.3
2023-05-21T18:48:42.476Z,8.9
2023-05-21T18:50:42.415Z,8.7
2023-05-21T18:52:42.543Z,9.0
2023-05-21T18:54:42.569Z,8.7
2023-05-21T18:56:42.626Z,8.6
2023-05-21T18:58:42.530Z,8.2
2023-05-21T19:00:42.748Z,9.0
2023-05-21T19:04:43.013Z,8.2
2023-05-21T19:08:45.193Z,8.9
2023-05-21T19:10:42.700Z,8.5
2023-05-21T19:12:42.967Z,8.8
2023-05-21T19:14:43.938Z,9.3
2023-05-21T19:16:42.942Z,8.8
2023-05-21T19:20:42.979Z,9.0
2023-05-21T19:22:42.828Z,8.6
2023-05-21T19:24:44.339Z,9.1
2023-05-21T19:26:42.894Z,8.5
2023-05-21T19:28:43.572Z,8.3
2023-05-21T19:30:42.787Z,8.9
2023-05-21T19:32:42.998Z,8.5
2023-05-21T19:34:42.958Z,9.0
2023-05-21T19:36:53.030Z,8.3
2023-05-21T19:38:47.124Z,8.6
2023-05-21T19:40:43.037Z,8.7
2023-05-21T19:42:43.854Z,8.8
2023-05-21T19:46:42.881Z,8.5
2023-05-21T19:48:42.765Z,8.8
2023-05-21T19:50:42.700Z,9.1
2023-05-21T19:52:42.719Z,8.8
2023-05-21T19:54:43.363Z,8.2
2023-05-21T19:56:43.156Z,8.8
2023-05-21T19:58:46.037Z,9.1
2023-05-21T20:00:45.810Z,8.1
2023-05-21T20:02:42.778Z,8.2
2023-05-21T20:04:42.849Z,8.0
2023-05-21T20:06:42.797Z,8.7
2023-05-21T20:08:42.678Z,8.6
2023-05-21T20:10:43.257Z,8.9
2023-05-21T20:12:42.705Z,8.6
2023-05-21T20:14:45.734Z,8.5
2023-05-21T20:16:45.849Z,8.6
2023-05-21T20:18:45.703Z,8.3
2023-05-21T20:20:42.729Z,8.0
2023-05-21T20:22:42.591Z,8.4
2023-05-21T20:26:43.876Z,9.0
2023-05-21T20:28:42.617Z,9.1
2023-05-21T20:30:53.284Z,8.5
2023-05-21T20:32:42.406Z,8.2
2023-05-21T20:34:58.395Z,8.7
2023-05-21T20:36:42.462Z,8.5
2023-05-21T20:38:44.444Z,8.7
2023-05-21T20:42:43.930Z,9.1
2023-05-21T20:44:44.043Z,8.4
2023-05-21T20:46:42.391Z,8.7
2023-05-21T20:48:42.570Z,8.8
2023-05-21T20:54:45.551Z,9.4
2023-05-21T20:56:43.889Z,8.4
2023-05-21T20:58:42.181Z,9.0
2023-05-21T21:00:42.993Z,9.3
2023-05-21T21:02:42.700Z,9.0
2023-05-21T21:04:42.038Z,9.7
2023-05-21T21:06:45.430Z,9.5
2023-05-21T21:08:45.104Z,9.8
2023-05-21T21:10:45.601Z,9.4
2023-05-21T21:12:41.986Z,9.9
2023-05-21T21:14:41.888Z,9.0
2023-05-21T21:16:41.928Z,9.1
2023-05-21T21:18:41.976Z,9.0
2023-05-21T21:20:41.879Z,9.6
2023-05-21T21:22:41.718Z,9.0
2023-05-21T21:24:41.722Z,9.7
2023-05-21T21:26:41.588Z,8.4
2023-05-21T21:28:41.525Z,9.7
2023-05-21T21:30:41.733Z,9.2
2023-05-21T21:34:41.502Z,8.4
2023-05-21T21:36:41.567Z,9.2
2023-05-21T21:38:41.489Z,8.8
2023-05-21T21:40:41.489Z,8.5
2023-05-21T21:42:41.542Z,8.1
2023-05-21T21:44:41.792Z,8.3
2023-05-21T21:46:41.212Z,8.5
2023-05-21T21:48:41.178Z,8.2
2023-05-21T21:50:41.316Z,8.5
2023-05-21T21:52:41.241Z,8.0
2023-05-21T21:54:41.047Z,8.7
2023-05-21T21:56:41.199Z,8.4
2023-05-21T21:58:41.055Z,8.1
2023-05-21T22:00:41.891Z,8.0
2023-05-21T22:02:41.445Z,8.9
2023-05-21T22:04:40.963Z,8.0
2023-05-21T22:06:40.756Z,8.4
2023-05-21T22:08:40.643Z,7.8
2023-05-21T22:10:40.732Z,7.7
2023-05-21T22:12:41.354Z,8.0
2023-05-21T22:14:42.653Z,7.4
2023-05-21T22:16:40.591Z,7.7
2023-05-21T22:22:40.211Z,9.2
2023-05-21T22:24:40.007Z,8.3
2023-05-21T22:26:39.925Z,7.6
2023-05-21T22:28:39.938Z,22.4
2023-05-21T22:30:40.065Z,8.2
2023-05-21T22:32:40.080Z,9.0
2023-05-21T22:34:40.849Z,8.8
2023-05-21T22:36:39.472Z,9.0
2023-05-21T22:38:39.450Z,9.1
2023-05-21T22:40:39.737Z,9.6
2023-05-21T22:42:39.729Z,9.5
2023-05-21T22:44:39.314Z,9.6
2023-05-21T22:46:40.991Z,9.5
2023-05-21T22:48:40.808Z,9.6
2023-05-21T22:50:39.375Z,10.1
2023-05-21T22:52:39.516Z,9.5
2023-05-21T22:54:38.817Z,10.3
2023-05-21T22:56:38.683Z,10.4
2023-05-21T22:58:38.606Z,10.3
2023-05-21T23:00:38.745Z,10.2
2023-05-21T23:02:38.492Z,10.6
2023-05-21T23:04:43.747Z,10.9
2023-05-21T23:06:38.220Z,10.4
2023-05-21T23:08:38.277Z,10.5
2023-05-21T23:10:38.315Z,11.7
2023-05-21T23:12:37.951Z,10.6
2023-05-21T23:14:37.883Z,11.2
2023-05-21T23:16:42.976Z,11.3
2023-05-21T23:18:39.382Z,11.1
2023-05-21T23:20:39.914Z,12.2
2023-05-21T23:22:37.684Z,12.1
2023-05-21T23:24:38.359Z,12.2
2023-05-21T23:26:37.400Z,12.1
2023-05-21T23:28:37.790Z,11.8
2023-05-21T23:30:37.239Z,12.5
2023-05-21T23:32:37.023Z,12.6
2023-05-21T23:34:37.051Z,12.7
2023-05-21T23:36:36.786Z,12.2
2023-05-21T23:38:36.728Z,13.5
2023-05-21T23:40:36.828Z,12.9
2023-05-21T23:42:36.672Z,13.2
2023-05-21T23:44:36.509Z,12.7
2023-05-21T23:46:36.453Z,13.3
2023-05-21T23:48:36.372Z,13.6
2023-05-21T23:50:36.256Z,13.4
2023-05-21T23:52:36.034Z,13.5
2023-05-21T23:54:35.851Z,13.6
2023-05-21T23:56:35.815Z,13.5
2023-05-21T23:58:35.726Z,14.0
